sensor_id;sensor_type;location;lat;lon;timestamp;temperature;humidity
28552;DHT22;15752;49.560;8.708;2023-04-06T00:00:28;7.30;80.80
28552;DHT22;15752;49.560;8.708;2023-04-06T00:02:57;7.20;80.90
28552;DHT22;15752;49.560;8.708;2023-04-06T00:05:25;7.20;80.50
28552;DHT22;15752;49.560;8.708;2023-04-06T00:07:54;7.50;80.90
28552;DHT22;15752;49.560;8.708;2023-04-06T00:10:23;7.40;80.70
28552;DHT22;15752;49.560;8.708;2023-04-06T00:12:51;7.20;81.20
28552;DHT22;15752;49.560;8.708;2023-04-06T00:15:21;7.10;81.80
28552;DHT22;15752;49.560;8.708;2023-04-06T00:17:53;7.30;81.50
28552;DHT22;15752;49.560;8.708;2023-04-06T00:20:24;7.10;81.20
28552;DHT22;15752;49.560;8.708;2023-04-06T00:22:52;7.10;81.80
28552;DHT22;15752;49.560;8.708;2023-04-06T00:25:21;7.30;81.40
28552;DHT22;15752;49.560;8.708;2023-04-06T00:27:50;7.30;81.00
28552;DHT22;15752;49.560;8.708;2023-04-06T00:30:18;7.00;81.10
28552;DHT22;15752;49.560;8.708;2023-04-06T00:32:48;7.30;82.40
28552;DHT22;15752;49.560;8.708;2023-04-06T00:35:17;7.00;81.90
28552;DHT22;15752;49.560;8.708;2023-04-06T00:37:46;7.00;82.70
28552;DHT22;15752;49.560;8.708;2023-04-06T00:40:15;7.00;83.10
28552;DHT22;15752;49.560;8.708;2023-04-06T00:42:44;7.00;82.10
28552;DHT22;15752;49.560;8.708;2023-04-06T00:45:13;7.00;82.40
28552;DHT22;15752;49.560;8.708;2023-04-06T00:47:41;7.20;82.00
28552;DHT22;15752;49.560;8.708;2023-04-06T00:50:11;7.00;82.40
28552;DHT22;15752;49.560;8.708;2023-04-06T00:52:40;7.00;82.70
28552;DHT22;15752;49.560;8.708;2023-04-06T00:55:09;7.00;82.00
28552;DHT22;15752;49.560;8.708;2023-04-06T00:57:41;7.00;82.20
28552;DHT22;15752;49.560;8.708;2023-04-06T01:00:10;6.90;82.40
28552;DHT22;15752;49.560;8.708;2023-04-06T01:02:42;7.00;83.80
28552;DHT22;15752;49.560;8.708;2023-04-06T01:05:15;6.90;83.20
28552;DHT22;15752;49.560;8.708;2023-04-06T01:07:51;6.90;82.90
28552;DHT22;15752;49.560;8.708;2023-04-06T01:10:24;7.10;83.10
28552;DHT22;15752;49.560;8.708;2023-04-06T01:12:59;6.90;83.60
28552;DHT22;15752;49.560;8.708;2023-04-06T01:15:45;7.10;82.10
28552;DHT22;15752;49.560;8.708;2023-04-06T01:18:25;7.10;83.90
28552;DHT22;15752;49.560;8.708;2023-04-06T01:21:08;7.10;84.00
28552;DHT22;15752;49.560;8.708;2023-04-06T01:23:55;7.10;83.00
28552;DHT22;15752;49.560;8.708;2023-04-06T01:26:31;6.80;83.10
28552;DHT22;15752;49.560;8.708;2023-04-06T01:29:00;6.80;83.20
28552;DHT22;15752;49.560;8.708;2023-04-06T01:31:29;6.80;83.70
28552;DHT22;15752;49.560;8.708;2023-04-06T01:33:58;6.80;83.10
28552;DHT22;15752;49.560;8.708;2023-04-06T01:36:26;7.00;81.20
28552;DHT22;15752;49.560;8.708;2023-04-06T01:39:09;7.00;82.80
28552;DHT22;15752;49.560;8.708;2023-04-06T01:41:39;6.90;83.00
28552;DHT22;15752;49.560;8.708;2023-04-06T01:44:08;6.70;81.90
28552;DHT22;15752;49.560;8.708;2023-04-06T01:46:37;6.70;82.70
28552;DHT22;15752;49.560;8.708;2023-04-06T01:49:07;6.70;83.00
28552;DHT22;15752;49.560;8.708;2023-04-06T01:51:38;6.70;82.70
28552;DHT22;15752;49.560;8.708;2023-04-06T01:54:12;6.60;83.40
28552;DHT22;15752;49.560;8.708;2023-04-06T01:57:04;6.90;84.00
28552;DHT22;15752;49.560;8.708;2023-04-06T01:59:39;6.60;82.80
28552;DHT22;15752;49.560;8.708;2023-04-06T02:02:17;6.60;83.30
28552;DHT22;15752;49.560;8.708;2023-04-06T02:04:55;6.60;83.90
28552;DHT22;15752;49.560;8.708;2023-04-06T02:07:24;6.60;84.30
28552;DHT22;15752;49.560;8.708;2023-04-06T02:09:55;6.60;84.30
28552;DHT22;15752;49.560;8.708;2023-04-06T02:12:34;6.60;84.20
28552;DHT22;15752;49.560;8.708;2023-04-06T02:15:05;6.60;83.30
28552;DHT22;15752;49.560;8.708;2023-04-06T02:17:35;6.50;84.70
28552;DHT22;15752;49.560;8.708;2023-04-06T02:20:04;6.50;83.00
28552;DHT22;15752;49.560;8.708;2023-04-06T02:22:35;6.50;84.70
28552;DHT22;15752;49.560;8.708;2023-04-06T02:25:05;6.70;83.50
28552;DHT22;15752;49.560;8.708;2023-04-06T02:27:35;6.50;84.90
28552;DHT22;15752;49.560;8.708;2023-04-06T02:30:04;6.40;83.90
28552;DHT22;15752;49.560;8.708;2023-04-06T02:32:33;6.40;84.90
28552;DHT22;15752;49.560;8.708;2023-04-06T02:35:03;6.70;82.80
28552;DHT22;15752;49.560;8.708;2023-04-06T02:37:34;6.40;85.00
28552;DHT22;15752;49.560;8.708;2023-04-06T02:40:03;6.40;84.70
28552;DHT22;15752;49.560;8.708;2023-04-06T02:42:34;6.40;85.10
28552;DHT22;15752;49.560;8.708;2023-04-06T02:45:04;6.60;83.90
28552;DHT22;15752;49.560;8.708;2023-04-06T02:47:40;6.40;85.10
28552;DHT22;15752;49.560;8.708;2023-04-06T02:50:10;6.30;84.10
28552;DHT22;15752;49.560;8.708;2023-04-06T02:52:46;6.50;84.40
28552;DHT22;15752;49.560;8.708;2023-04-06T02:55:16;6.40;84.60
28552;DHT22;15752;49.560;8.708;2023-04-06T02:57:48;6.30;84.60
28552;DHT22;15752;49.560;8.708;2023-04-06T03:00:20;6.60;85.30
28552;DHT22;15752;49.560;8.708;2023-04-06T03:02:48;6.30;85.40
28552;DHT22;15752;49.560;8.708;2023-04-06T03:05:18;6.30;85.20
28552;DHT22;15752;49.560;8.708;2023-04-06T03:07:47;6.20;86.00
28552;DHT22;15752;49.560;8.708;2023-04-06T03:10:29;6.20;84.90
28552;DHT22;15752;49.560;8.708;2023-04-06T03:12:58;6.20;84.10
28552;DHT22;15752;49.560;8.708;2023-04-06T03:15:52;6.20;84.10
28552;DHT22;15752;49.560;8.708;2023-04-06T03:18:22;6.20;85.10
28552;DHT22;15752;49.560;8.708;2023-04-06T03:20:53;6.40;85.90
28552;DHT22;15752;49.560;8.708;2023-04-06T03:23:26;6.10;84.90
28552;DHT22;15752;49.560;8.708;2023-04-06T03:26:00;6.10;85.20
28552;DHT22;15752;49.560;8.708;2023-04-06T03:28:29;6.30;86.20
28552;DHT22;15752;49.560;8.708;2023-04-06T03:31:04;6.10;86.00
28552;DHT22;15752;49.560;8.708;2023-04-06T03:33:58;6.10;86.00
28552;DHT22;15752;49.560;8.708;2023-04-06T03:36:30;6.10;85.90
28552;DHT22;15752;49.560;8.708;2023-04-06T03:39:00;6.10;85.80
28552;DHT22;15752;49.560;8.708;2023-04-06T03:41:33;6.00;85.90
28552;DHT22;15752;49.560;8.708;2023-04-06T03:44:26;6.20;86.00
28552;DHT22;15752;49.560;8.708;2023-04-06T03:46:55;6.00;85.90
28552;DHT22;15752;49.560;8.708;2023-04-06T03:49:24;6.20;86.00
28552;DHT22;15752;49.560;8.708;2023-04-06T03:51:53;6.00;85.90
28552;DHT22;15752;49.560;8.708;2023-04-06T03:54:22;6.00;86.00
28552;DHT22;15752;49.560;8.708;2023-04-06T03:56:51;6.00;86.20
28552;DHT22;15752;49.560;8.708;2023-04-06T03:59:20;6.00;86.40
28552;DHT22;15752;49.560;8.708;2023-04-06T04:01:52;6.10;86.30
28552;DHT22;15752;49.560;8.708;2023-04-06T04:04:21;5.90;86.20
28552;DHT22;15752;49.560;8.708;2023-04-06T04:06:49;5.90;86.40
28552;DHT22;15752;49.560;8.708;2023-04-06T04:09:17;5.90;86.10
28552;DHT22;15752;49.560;8.708;2023-04-06T04:11:46;5.90;86.20
28552;DHT22;15752;49.560;8.708;2023-04-06T04:14:15;5.90;86.20
28552;DHT22;15752;49.560;8.708;2023-04-06T04:16:44;5.90;86.30
28552;DHT22;15752;49.560;8.708;2023-04-06T04:19:13;5.90;86.40
28552;DHT22;15752;49.560;8.708;2023-04-06T04:21:45;5.90;86.20
28552;DHT22;15752;49.560;8.708;2023-04-06T04:24:18;5.80;87.00
28552;DHT22;15752;49.560;8.708;2023-04-06T04:26:47;5.80;86.70
28552;DHT22;15752;49.560;8.708;2023-04-06T04:29:16;5.80;86.60
28552;DHT22;15752;49.560;8.708;2023-04-06T04:31:49;5.80;86.90
28552;DHT22;15752;49.560;8.708;2023-04-06T04:34:18;5.80;86.70
28552;DHT22;15752;49.560;8.708;2023-04-06T04:36:50;5.80;86.50
28552;DHT22;15752;49.560;8.708;2023-04-06T04:39:27;6.00;87.00
28552;DHT22;15752;49.560;8.708;2023-04-06T04:42:03;5.70;86.60
28552;DHT22;15752;49.560;8.708;2023-04-06T04:44:35;5.70;86.70
28552;DHT22;15752;49.560;8.708;2023-04-06T04:47:04;5.70;87.20
28552;DHT22;15752;49.560;8.708;2023-04-06T04:49:41;5.70;87.10
28552;DHT22;15752;49.560;8.708;2023-04-06T04:52:10;5.70;86.80
28552;DHT22;15752;49.560;8.708;2023-04-06T04:54:51;5.70;86.90
28552;DHT22;15752;49.560;8.708;2023-04-06T04:57:26;5.70;86.80
28552;DHT22;15752;49.560;8.708;2023-04-06T04:59:56;5.70;86.90
28552;DHT22;15752;49.560;8.708;2023-04-06T05:02:24;5.70;86.50
28552;DHT22;15752;49.560;8.708;2023-04-06T05:05:10;5.60;86.90
28552;DHT22;15752;49.560;8.708;2023-04-06T05:07:39;5.70;86.90
28552;DHT22;15752;49.560;8.708;2023-04-06T05:10:13;5.60;86.90
28552;DHT22;15752;49.560;8.708;2023-04-06T05:12:51;5.60;87.30
28552;DHT22;15752;49.560;8.708;2023-04-06T05:15:21;5.60;87.50
28552;DHT22;15752;49.560;8.708;2023-04-06T05:17:55;5.60;87.20
28552;DHT22;15752;49.560;8.708;2023-04-06T05:20:30;5.60;87.40
28552;DHT22;15752;49.560;8.708;2023-04-06T05:22:59;5.70;87.60
28552;DHT22;15752;49.560;8.708;2023-04-06T05:25:28;5.50;87.10
28552;DHT22;15752;49.560;8.708;2023-04-06T05:28:03;5.50;87.60
28552;DHT22;15752;49.560;8.708;2023-04-06T05:30:35;5.50;87.30
28552;DHT22;15752;49.560;8.708;2023-04-06T05:33:04;5.60;87.90
28552;DHT22;15752;49.560;8.708;2023-04-06T05:35:46;5.50;87.60
28552;DHT22;15752;49.560;8.708;2023-04-06T05:38:15;5.50;86.80
28552;DHT22;15752;49.560;8.708;2023-04-06T05:40:44;5.50;87.50
28552;DHT22;15752;49.560;8.708;2023-04-06T05:43:16;5.70;87.60
28552;DHT22;15752;49.560;8.708;2023-04-06T05:45:54;5.50;88.00
28552;DHT22;15752;49.560;8.708;2023-04-06T05:48:22;5.50;88.70
28552;DHT22;15752;49.560;8.708;2023-04-06T05:50:51;5.40;87.70
28552;DHT22;15752;49.560;8.708;2023-04-06T05:53:26;5.40;87.80
28552;DHT22;15752;49.560;8.708;2023-04-06T05:56:00;5.40;88.00
28552;DHT22;15752;49.560;8.708;2023-04-06T05:58:29;5.70;88.60
28552;DHT22;15752;49.560;8.708;2023-04-06T06:01:00;5.40;88.30
28552;DHT22;15752;49.560;8.708;2023-04-06T06:03:37;5.50;88.70
28552;DHT22;15752;49.560;8.708;2023-04-06T06:06:06;5.40;88.50
28552;DHT22;15752;49.560;8.708;2023-04-06T06:08:45;5.40;88.50
28552;DHT22;15752;49.560;8.708;2023-04-06T06:11:16;5.40;88.50
28552;DHT22;15752;49.560;8.708;2023-04-06T06:13:44;5.60;88.70
28552;DHT22;15752;49.560;8.708;2023-04-06T06:16:15;5.30;88.40
28552;DHT22;15752;49.560;8.708;2023-04-06T06:18:46;5.30;88.80
28552;DHT22;15752;49.560;8.708;2023-04-06T06:21:15;5.50;88.90
28552;DHT22;15752;49.560;8.708;2023-04-06T06:23:45;5.50;88.80
28552;DHT22;15752;49.560;8.708;2023-04-06T06:26:18;5.30;88.60
28552;DHT22;15752;49.560;8.708;2023-04-06T06:28:48;5.30;88.80
28552;DHT22;15752;49.560;8.708;2023-04-06T06:31:18;5.30;89.00
28552;DHT22;15752;49.560;8.708;2023-04-06T06:33:48;5.30;89.10
28552;DHT22;15752;49.560;8.708;2023-04-06T06:36:21;5.30;88.90
28552;DHT22;15752;49.560;8.708;2023-04-06T06:38:49;5.30;89.10
28552;DHT22;15752;49.560;8.708;2023-04-06T06:41:20;5.30;89.40
28552;DHT22;15752;49.560;8.708;2023-04-06T06:43:49;5.30;89.50
28552;DHT22;15752;49.560;8.708;2023-04-06T06:46:19;5.30;89.70
28552;DHT22;15752;49.560;8.708;2023-04-06T06:48:48;5.30;90.00
28552;DHT22;15752;49.560;8.708;2023-04-06T06:51:17;5.30;89.80
28552;DHT22;15752;49.560;8.708;2023-04-06T06:53:45;5.30;89.80
28552;DHT22;15752;49.560;8.708;2023-04-06T06:56:13;5.40;89.70
28552;DHT22;15752;49.560;8.708;2023-04-06T06:58:43;5.40;89.90
28552;DHT22;15752;49.560;8.708;2023-04-06T07:01:11;5.40;90.00
28552;DHT22;15752;49.560;8.708;2023-04-06T07:03:41;5.40;90.00
28552;DHT22;15752;49.560;8.708;2023-04-06T07:06:10;5.50;90.20
28552;DHT22;15752;49.560;8.708;2023-04-06T07:08:39;5.50;90.00
28552;DHT22;15752;49.560;8.708;2023-04-06T07:11:08;5.50;90.00
28552;DHT22;15752;49.560;8.708;2023-04-06T07:13:36;5.50;90.00
28552;DHT22;15752;49.560;8.708;2023-04-06T07:16:04;5.60;90.20
28552;DHT22;15752;49.560;8.708;2023-04-06T07:18:33;5.60;90.30
28552;DHT22;15752;49.560;8.708;2023-04-06T07:21:04;5.70;90.30
28552;DHT22;15752;49.560;8.708;2023-04-06T07:23:33;5.70;90.20
28552;DHT22;15752;49.560;8.708;2023-04-06T07:26:01;5.70;90.00
28552;DHT22;15752;49.560;8.708;2023-04-06T07:28:30;5.90;90.10
28552;DHT22;15752;49.560;8.708;2023-04-06T07:31:00;5.80;90.30
28552;DHT22;15752;49.560;8.708;2023-04-06T07:33:28;6.00;90.30
28552;DHT22;15752;49.560;8.708;2023-04-06T07:35:58;5.80;90.20
28552;DHT22;15752;49.560;8.708;2023-04-06T07:38:28;6.00;90.20
28552;DHT22;15752;49.560;8.708;2023-04-06T07:40:56;5.90;90.10
28552;DHT22;15752;49.560;8.708;2023-04-06T07:43:25;6.10;90.30
28552;DHT22;15752;49.560;8.708;2023-04-06T07:45:55;6.00;90.40
28552;DHT22;15752;49.560;8.708;2023-04-06T07:48:26;6.10;90.40
28552;DHT22;15752;49.560;8.708;2023-04-06T07:51:00;6.30;90.50
28552;DHT22;15752;49.560;8.708;2023-04-06T07:53:32;6.20;90.80
28552;DHT22;15752;49.560;8.708;2023-04-06T07:56:00;6.20;90.60
28552;DHT22;15752;49.560;8.708;2023-04-06T07:58:29;6.30;90.60
28552;DHT22;15752;49.560;8.708;2023-04-06T08:00:57;6.30;90.60
28552;DHT22;15752;49.560;8.708;2023-04-06T08:03:26;6.40;90.60
28552;DHT22;15752;49.560;8.708;2023-04-06T08:05:54;6.50;90.90
28552;DHT22;15752;49.560;8.708;2023-04-06T08:08:23;6.60;90.70
28552;DHT22;15752;49.560;8.708;2023-04-06T08:10:52;6.70;90.60
28552;DHT22;15752;49.560;8.708;2023-04-06T08:13:21;6.70;90.50
28552;DHT22;15752;49.560;8.708;2023-04-06T08:15:49;6.80;90.90
28552;DHT22;15752;49.560;8.708;2023-04-06T08:18:17;6.90;90.60
28552;DHT22;15752;49.560;8.708;2023-04-06T08:20:46;7.00;90.50
28552;DHT22;15752;49.560;8.708;2023-04-06T08:23:15;7.10;90.70
28552;DHT22;15752;49.560;8.708;2023-04-06T08:25:43;7.20;90.60
28552;DHT22;15752;49.560;8.708;2023-04-06T08:28:13;7.50;90.80
28552;DHT22;15752;49.560;8.708;2023-04-06T08:30:43;7.50;90.70
28552;DHT22;15752;49.560;8.708;2023-04-06T08:33:11;7.60;90.60
28552;DHT22;15752;49.560;8.708;2023-04-06T08:35:50;7.80;90.50
28552;DHT22;15752;49.560;8.708;2023-04-06T08:38:27;7.80;90.30
28552;DHT22;15752;49.560;8.708;2023-04-06T08:40:55;8.30;90.10
28552;DHT22;15752;49.560;8.708;2023-04-06T08:43:26;8.40;90.00
28552;DHT22;15752;49.560;8.708;2023-04-06T08:45:55;8.50;89.70
28552;DHT22;15752;49.560;8.708;2023-04-06T08:48:26;8.70;89.60
28552;DHT22;15752;49.560;8.708;2023-04-06T08:50:54;8.80;89.30
28552;DHT22;15752;49.560;8.708;2023-04-06T08:53:23;9.10;88.90
28552;DHT22;15752;49.560;8.708;2023-04-06T08:55:51;9.40;88.10
28552;DHT22;15752;49.560;8.708;2023-04-06T08:58:20;9.30;87.80
28552;DHT22;15752;49.560;8.708;2023-04-06T09:01:07;9.40;87.60
28552;DHT22;15752;49.560;8.708;2023-04-06T09:03:38;9.60;87.10
28552;DHT22;15752;49.560;8.708;2023-04-06T09:06:09;9.70;86.60
28552;DHT22;15752;49.560;8.708;2023-04-06T09:08:39;9.90;86.70
28552;DHT22;15752;49.560;8.708;2023-04-06T09:11:09;10.00;86.20
28552;DHT22;15752;49.560;8.708;2023-04-06T09:13:48;10.10;85.80
28552;DHT22;15752;49.560;8.708;2023-04-06T09:16:19;10.20;85.60
28552;DHT22;15752;49.560;8.708;2023-04-06T09:18:48;10.30;85.00
28552;DHT22;15752;49.560;8.708;2023-04-06T09:21:18;10.40;85.10
28552;DHT22;15752;49.560;8.708;2023-04-06T09:23:58;10.50;85.10
28552;DHT22;15752;49.560;8.708;2023-04-06T09:26:28;10.80;84.60
28552;DHT22;15752;49.560;8.708;2023-04-06T09:28:57;10.80;84.50
28552;DHT22;15752;49.560;8.708;2023-04-06T09:31:31;10.90;83.80
28552;DHT22;15752;49.560;8.708;2023-04-06T09:34:00;11.00;83.00
28552;DHT22;15752;49.560;8.708;2023-04-06T09:36:30;11.10;83.40
28552;DHT22;15752;49.560;8.708;2023-04-06T09:39:00;11.20;83.00
28552;DHT22;15752;49.560;8.708;2023-04-06T09:41:30;11.20;82.70
28552;DHT22;15752;49.560;8.708;2023-04-06T09:44:03;11.30;82.40
28552;DHT22;15752;49.560;8.708;2023-04-06T09:46:35;11.50;81.90
28552;DHT22;15752;49.560;8.708;2023-04-06T09:49:27;11.70;82.30
28552;DHT22;15752;49.560;8.708;2023-04-06T09:51:59;11.70;81.80
28552;DHT22;15752;49.560;8.708;2023-04-06T09:54:29;11.70;81.50
28552;DHT22;15752;49.560;8.708;2023-04-06T09:57:04;11.80;81.80
28552;DHT22;15752;49.560;8.708;2023-04-06T09:59:43;11.90;80.90
28552;DHT22;15752;49.560;8.708;2023-04-06T10:02:23;12.00;80.30
28552;DHT22;15752;49.560;8.708;2023-04-06T10:04:59;12.20;80.10
28552;DHT22;15752;49.560;8.708;2023-04-06T10:07:31;12.20;79.80
28552;DHT22;15752;49.560;8.708;2023-04-06T10:10:05;12.20;79.90
28552;DHT22;15752;49.560;8.708;2023-04-06T10:12:34;12.30;78.60
28552;DHT22;15752;49.560;8.708;2023-04-06T10:15:03;12.50;78.90
28552;DHT22;15752;49.560;8.708;2023-04-06T10:17:33;12.40;78.10
28552;DHT22;15752;49.560;8.708;2023-04-06T10:20:06;12.50;77.70
28552;DHT22;15752;49.560;8.708;2023-04-06T10:22:41;12.60;77.30
28552;DHT22;15752;49.560;8.708;2023-04-06T10:25:17;12.60;77.20
28552;DHT22;15752;49.560;8.708;2023-04-06T10:27:45;12.70;78.20
28552;DHT22;15752;49.560;8.708;2023-04-06T10:30:15;12.80;78.10
28552;DHT22;15752;49.560;8.708;2023-04-06T10:32:46;12.80;77.30
28552;DHT22;15752;49.560;8.708;2023-04-06T10:35:15;12.90;76.90
28552;DHT22;15752;49.560;8.708;2023-04-06T10:37:52;12.90;76.70
28552;DHT22;15752;49.560;8.708;2023-04-06T10:40:23;13.00;76.40
28552;DHT22;15752;49.560;8.708;2023-04-06T10:42:53;13.30;76.80
28552;DHT22;15752;49.560;8.708;2023-04-06T10:45:24;13.10;76.70
28552;DHT22;15752;49.560;8.708;2023-04-06T10:47:55;13.20;76.70
28552;DHT22;15752;49.560;8.708;2023-04-06T10:50:26;13.00;75.20
28552;DHT22;15752;49.560;8.708;2023-04-06T10:53:00;13.20;76.40
28552;DHT22;15752;49.560;8.708;2023-04-06T10:55:31;13.30;75.10
28552;DHT22;15752;49.560;8.708;2023-04-06T10:57:59;13.30;75.60
28552;DHT22;15752;49.560;8.708;2023-04-06T11:00:27;13.40;75.80
28552;DHT22;15752;49.560;8.708;2023-04-06T11:03:14;13.40;75.30
28552;DHT22;15752;49.560;8.708;2023-04-06T11:05:44;13.50;75.00
28552;DHT22;15752;49.560;8.708;2023-04-06T11:08:25;13.50;74.80
28552;DHT22;15752;49.560;8.708;2023-04-06T11:11:04;13.60;74.30
28552;DHT22;15752;49.560;8.708;2023-04-06T11:13:41;13.60;73.90
28552;DHT22;15752;49.560;8.708;2023-04-06T11:16:14;13.70;73.40
28552;DHT22;15752;49.560;8.708;2023-04-06T11:18:49;13.70;73.30
28552;DHT22;15752;49.560;8.708;2023-04-06T11:21:19;13.80;73.00
28552;DHT22;15752;49.560;8.708;2023-04-06T11:23:48;13.80;73.80
28552;DHT22;15752;49.560;8.708;2023-04-06T11:26:16;13.90;73.40
28552;DHT22;15752;49.560;8.708;2023-04-06T11:28:44;13.90;73.00
28552;DHT22;15752;49.560;8.708;2023-04-06T11:31:13;13.90;71.90
28552;DHT22;15752;49.560;8.708;2023-04-06T11:33:41;14.00;72.30
28552;DHT22;15752;49.560;8.708;2023-04-06T11:36:11;14.00;72.60
28552;DHT22;15752;49.560;8.708;2023-04-06T11:38:43;14.00;72.10
28552;DHT22;15752;49.560;8.708;2023-04-06T11:41:11;14.10;72.20
28552;DHT22;15752;49.560;8.708;2023-04-06T11:43:46;14.10;71.90
28552;DHT22;15752;49.560;8.708;2023-04-06T11:46:18;14.10;71.30
28552;DHT22;15752;49.560;8.708;2023-04-06T11:48:47;14.20;71.20
28552;DHT22;15752;49.560;8.708;2023-04-06T11:51:23;14.20;71.60
28552;DHT22;15752;49.560;8.708;2023-04-06T11:53:51;14.20;71.00
28552;DHT22;15752;49.560;8.708;2023-04-06T11:56:27;14.30;71.80
28552;DHT22;15752;49.560;8.708;2023-04-06T11:58:58;14.30;70.00
28552;DHT22;15752;49.560;8.708;2023-04-06T12:01:27;14.30;70.80
28552;DHT22;15752;49.560;8.708;2023-04-06T12:03:57;14.40;70.60
28552;DHT22;15752;49.560;8.708;2023-04-06T12:06:27;14.40;70.80
28552;DHT22;15752;49.560;8.708;2023-04-06T12:08:56;14.40;70.70
28552;DHT22;15752;49.560;8.708;2023-04-06T12:11:25;14.50;70.50
28552;DHT22;15752;49.560;8.708;2023-04-06T12:13:53;14.50;69.80
28552;DHT22;15752;49.560;8.708;2023-04-06T12:16:21;14.50;69.50
28552;DHT22;15752;49.560;8.708;2023-04-06T12:18:51;14.50;69.20
28552;DHT22;15752;49.560;8.708;2023-04-06T12:21:19;14.60;68.40
28552;DHT22;15752;49.560;8.708;2023-04-06T12:23:49;14.60;68.60
28552;DHT22;15752;49.560;8.708;2023-04-06T12:26:17;14.70;68.20
28552;DHT22;15752;49.560;8.708;2023-04-06T12:28:45;14.70;67.80
28552;DHT22;15752;49.560;8.708;2023-04-06T12:31:14;14.70;68.10
28552;DHT22;15752;49.560;8.708;2023-04-06T12:33:45;14.80;67.00
28552;DHT22;15752;49.560;8.708;2023-04-06T12:36:15;14.80;66.80
28552;DHT22;15752;49.560;8.708;2023-04-06T12:38:47;14.80;66.00
28552;DHT22;15752;49.560;8.708;2023-04-06T12:41:17;14.90;66.70
28552;DHT22;15752;49.560;8.708;2023-04-06T12:43:46;14.90;66.30
28552;DHT22;15752;49.560;8.708;2023-04-06T12:46:14;14.90;66.50
28552;DHT22;15752;49.560;8.708;2023-04-06T12:48:43;15.00;66.10
28552;DHT22;15752;49.560;8.708;2023-04-06T12:51:11;15.00;65.60
28552;DHT22;15752;49.560;8.708;2023-04-06T12:53:40;15.00;65.60
28552;DHT22;15752;49.560;8.708;2023-04-06T12:56:15;15.00;65.30
28552;DHT22;15752;49.560;8.708;2023-04-06T12:58:44;15.10;64.30
28552;DHT22;15752;49.560;8.708;2023-04-06T13:01:13;15.10;65.50
28552;DHT22;15752;49.560;8.708;2023-04-06T13:03:42;15.20;65.00
28552;DHT22;15752;49.560;8.708;2023-04-06T13:06:10;15.20;64.80
28552;DHT22;15752;49.560;8.708;2023-04-06T13:08:39;15.20;65.20
28552;DHT22;15752;49.560;8.708;2023-04-06T13:11:08;15.30;64.60
28552;DHT22;15752;49.560;8.708;2023-04-06T13:13:38;15.30;64.40
28552;DHT22;15752;49.560;8.708;2023-04-06T13:16:08;15.30;63.90
28552;DHT22;15752;49.560;8.708;2023-04-06T13:18:37;15.40;63.80
28552;DHT22;15752;49.560;8.708;2023-04-06T13:21:06;15.40;63.20
28552;DHT22;15752;49.560;8.708;2023-04-06T13:23:35;15.40;63.40
28552;DHT22;15752;49.560;8.708;2023-04-06T13:26:05;15.40;63.20
28552;DHT22;15752;49.560;8.708;2023-04-06T13:28:35;15.50;62.20
28552;DHT22;15752;49.560;8.708;2023-04-06T13:31:06;15.50;62.10
28552;DHT22;15752;49.560;8.708;2023-04-06T13:33:35;15.50;62.10
28552;DHT22;15752;49.560;8.708;2023-04-06T13:36:05;15.50;62.80
28552;DHT22;15752;49.560;8.708;2023-04-06T13:38:34;15.60;62.20
28552;DHT22;15752;49.560;8.708;2023-04-06T13:41:05;15.60;61.70
28552;DHT22;15752;49.560;8.708;2023-04-06T13:43:34;15.60;61.60
28552;DHT22;15752;49.560;8.708;2023-04-06T13:46:04;15.70;61.40
28552;DHT22;15752;49.560;8.708;2023-04-06T13:48:32;15.70;60.90
28552;DHT22;15752;49.560;8.708;2023-04-06T13:51:08;15.70;61.30
28552;DHT22;15752;49.560;8.708;2023-04-06T13:53:37;15.70;60.10
28552;DHT22;15752;49.560;8.708;2023-04-06T13:56:08;15.70;60.00
28552;DHT22;15752;49.560;8.708;2023-04-06T13:58:36;15.70;60.00
28552;DHT22;15752;49.560;8.708;2023-04-06T14:01:07;15.70;60.40
28552;DHT22;15752;49.560;8.708;2023-04-06T14:03:37;15.70;59.30
28552;DHT22;15752;49.560;8.708;2023-04-06T14:06:12;15.70;60.10
28552;DHT22;15752;49.560;8.708;2023-04-06T14:08:56;15.60;59.00
28552;DHT22;15752;49.560;8.708;2023-04-06T14:11:25;15.60;59.90
28552;DHT22;15752;49.560;8.708;2023-04-06T14:13:53;15.70;59.50
28552;DHT22;15752;49.560;8.708;2023-04-06T14:16:25;15.70;59.50
28552;DHT22;15752;49.560;8.708;2023-04-06T14:18:54;15.70;59.40
28552;DHT22;15752;49.560;8.708;2023-04-06T14:21:24;15.60;59.20
28552;DHT22;15752;49.560;8.708;2023-04-06T14:23:53;15.60;59.60
28552;DHT22;15752;49.560;8.708;2023-04-06T14:26:25;15.60;59.70
28552;DHT22;15752;49.560;8.708;2023-04-06T14:28:54;15.60;59.50
28552;DHT22;15752;49.560;8.708;2023-04-06T14:31:22;15.60;58.90
28552;DHT22;15752;49.560;8.708;2023-04-06T14:33:53;15.60;59.50
28552;DHT22;15752;49.560;8.708;2023-04-06T14:36:22;15.60;59.50
28552;DHT22;15752;49.560;8.708;2023-04-06T14:38:50;15.70;59.30
28552;DHT22;15752;49.560;8.708;2023-04-06T14:41:20;15.70;59.10
28552;DHT22;15752;49.560;8.708;2023-04-06T14:43:50;15.70;59.10
28552;DHT22;15752;49.560;8.708;2023-04-06T14:46:19;15.70;59.00
28552;DHT22;15752;49.560;8.708;2023-04-06T14:48:49;15.70;59.20
28552;DHT22;15752;49.560;8.708;2023-04-06T14:51:18;15.60;58.70
28552;DHT22;15752;49.560;8.708;2023-04-06T14:53:47;15.70;58.60
28552;DHT22;15752;49.560;8.708;2023-04-06T14:56:19;15.70;58.60
28552;DHT22;15752;49.560;8.708;2023-04-06T14:58:49;15.70;58.60
28552;DHT22;15752;49.560;8.708;2023-04-06T15:01:18;15.70;58.70
28552;DHT22;15752;49.560;8.708;2023-04-06T15:03:49;15.70;58.60
28552;DHT22;15752;49.560;8.708;2023-04-06T15:06:18;15.70;58.40
28552;DHT22;15752;49.560;8.708;2023-04-06T15:08:48;15.70;58.60
28552;DHT22;15752;49.560;8.708;2023-04-06T15:11:17;15.70;58.70
28552;DHT22;15752;49.560;8.708;2023-04-06T15:13:45;15.70;58.30
28552;DHT22;15752;49.560;8.708;2023-04-06T15:16:14;15.70;58.10
28552;DHT22;15752;49.560;8.708;2023-04-06T15:18:42;15.70;58.50
28552;DHT22;15752;49.560;8.708;2023-04-06T15:21:12;15.60;58.30
28552;DHT22;15752;49.560;8.708;2023-04-06T15:23:41;15.60;58.00
28552;DHT22;15752;49.560;8.708;2023-04-06T15:26:09;15.60;58.10
28552;DHT22;15752;49.560;8.708;2023-04-06T15:28:38;15.60;58.00
28552;DHT22;15752;49.560;8.708;2023-04-06T15:31:13;15.60;57.90
28552;DHT22;15752;49.560;8.708;2023-04-06T15:34:02;15.60;57.80
28552;DHT22;15752;49.560;8.708;2023-04-06T15:36:32;15.60;57.70
28552;DHT22;15752;49.560;8.708;2023-04-06T15:39:01;15.60;57.70
28552;DHT22;15752;49.560;8.708;2023-04-06T15:41:30;15.60;58.00
28552;DHT22;15752;49.560;8.708;2023-04-06T15:43:59;15.50;57.60
28552;DHT22;15752;49.560;8.708;2023-04-06T15:46:27;15.50;57.10
28552;DHT22;15752;49.560;8.708;2023-04-06T15:48:56;15.50;57.20
28552;DHT22;15752;49.560;8.708;2023-04-06T15:51:24;15.50;57.50
28552;DHT22;15752;49.560;8.708;2023-04-06T15:53:54;15.50;57.40
28552;DHT22;15752;49.560;8.708;2023-04-06T15:56:24;15.50;56.60
28552;DHT22;15752;49.560;8.708;2023-04-06T15:58:52;15.40;56.90
28552;DHT22;15752;49.560;8.708;2023-04-06T16:01:22;15.40;57.20
28552;DHT22;15752;49.560;8.708;2023-04-06T16:03:51;15.40;57.80